Weather at Girona-Costa Brava Airport

Public forecast

Using degrees Celsius for public forecast. Weather courtesy of forecast.io.

Current aviation weather report (METAR) for Girona-Costa Brava Airport

Report is more than 6 hours old.

2022/11/14 15:30 (retrieved 2 years ago)

LEGE 141530Z 20011KT 9999 FEW030 19/16 Q1015

Aviation forecast (TAF) for Girona-Costa Brava Airport

Forecast is more than 12 hours old.

2023/02/22 18:27 (retrieved 1 year ago)

TAF LEGE 221700Z 2218/2318 VRB04KT 9999 FEW040 TX18/2313Z TN04/2306Z PROB30 TEMPO 2218/2224 SHRA FEW040TCU TEMPO 2222/2308 3000 BR BKN010 PROB40 TEMPO 2300/2307 0800 FG VV002 BECMG 2310/2312 17010KT PROB40 TEMPO 2314/2318 3000 RA BKN010